sensor_id;sensor_type;location;lat;lon;timestamp;P1;durP1;ratioP1;P2;durP2;ratioP2
61739;SDS011;47645;45.288;12.038;2023-08-07T00:02:39;1.3;;;0.6;;
61739;SDS011;47645;45.288;12.038;2023-08-07T00:12:40;1.7;;;0.6;;
61739;SDS011;47645;45.288;12.038;2023-08-07T00:22:41;1.3;;;0.5;;
61739;SDS011;47645;45.288;12.038;2023-08-07T00:32:42;2.0;;;0.5;;
61739;SDS011;47645;45.288;12.038;2023-08-07T00:42:44;3.5;;;0.4;;
61739;SDS011;47645;45.288;12.038;2023-08-07T00:52:45;1.4;;;0.5;;
61739;SDS011;47645;45.288;12.038;2023-08-07T01:02:49;1.5;;;0.5;;
61739;SDS011;47645;45.288;12.038;2023-08-07T01:12:51;1.0;;;0.5;;
61739;SDS011;47645;45.288;12.038;2023-08-07T01:22:49;1.9;;;0.4;;
61739;SDS011;47645;45.288;12.038;2023-08-07T01:32:54;3.2;;;0.5;;
61739;SDS011;47645;45.288;12.038;2023-08-07T01:42:51;1.1;;;0.4;;
61739;SDS011;47645;45.288;12.038;2023-08-07T01:52:52;1.0;;;0.4;;
61739;SDS011;47645;45.288;12.038;2023-08-07T02:02:53;2.9;;;0.5;;
61739;SDS011;47645;45.288;12.038;2023-08-07T02:12:56;0.9;;;0.4;;
61739;SDS011;47645;45.288;12.038;2023-08-07T02:22:56;1.8;;;0.6;;
61739;SDS011;47645;45.288;12.038;2023-08-07T02:32:57;1.9;;;0.6;;
61739;SDS011;47645;45.288;12.038;2023-08-07T02:42:58;1.8;;;0.5;;
61739;SDS011;47645;45.288;12.038;2023-08-07T02:53:00;2.4;;;0.7;;
61739;SDS011;47645;45.288;12.038;2023-08-07T03:03:00;2.2;;;0.8;;
61739;SDS011;47645;45.288;12.038;2023-08-07T03:13:01;2.0;;;0.7;;
61739;SDS011;47645;45.288;12.038;2023-08-07T03:23:03;1.1;;;0.5;;
61739;SDS011;47645;45.288;12.038;2023-08-07T03:33:04;1.6;;;0.7;;
61739;SDS011;47645;45.288;12.038;2023-08-07T03:43:05;2.4;;;1.0;;
61739;SDS011;47645;45.288;12.038;2023-08-07T03:53:07;2.1;;;0.8;;
61739;SDS011;47645;45.288;12.038;2023-08-07T04:03:07;3.4;;;1.3;;
61739;SDS011;47645;45.288;12.038;2023-08-07T04:13:08;3.7;;;1.3;;
61739;SDS011;47645;45.288;12.038;2023-08-07T04:23:09;3.5;;;1.8;;
61739;SDS011;47645;45.288;12.038;2023-08-07T04:33:11;3.5;;;1.4;;
61739;SDS011;47645;45.288;12.038;2023-08-07T04:43:12;2.3;;;0.9;;
61739;SDS011;47645;45.288;12.038;2023-08-07T04:53:13;2.8;;;1.1;;
61739;SDS011;47645;45.288;12.038;2023-08-07T05:03:15;3.9;;;1.2;;
61739;SDS011;47645;45.288;12.038;2023-08-07T05:13:15;6.5;;;1.3;;
61739;SDS011;47645;45.288;12.038;2023-08-07T05:23:16;1.8;;;1.1;;
61739;SDS011;47645;45.288;12.038;2023-08-07T05:33:17;3.9;;;1.4;;
61739;SDS011;47645;45.288;12.038;2023-08-07T05:43:18;3.8;;;1.2;;
61739;SDS011;47645;45.288;12.038;2023-08-07T05:53:19;3.4;;;1.1;;
61739;SDS011;47645;45.288;12.038;2023-08-07T06:03:21;2.9;;;0.9;;
61739;SDS011;47645;45.288;12.038;2023-08-07T06:13:22;2.5;;;0.8;;
61739;SDS011;47645;45.288;12.038;2023-08-07T06:23:23;1.8;;;0.7;;
61739;SDS011;47645;45.288;12.038;2023-08-07T06:33:24;6.6;;;1.0;;
61739;SDS011;47645;45.288;12.038;2023-08-07T06:43:25;3.6;;;0.8;;
61739;SDS011;47645;45.288;12.038;2023-08-07T06:53:26;1.8;;;0.6;;
61739;SDS011;47645;45.288;12.038;2023-08-07T07:03:27;2.8;;;0.7;;
61739;SDS011;47645;45.288;12.038;2023-08-07T07:13:29;2.3;;;0.8;;
61739;SDS011;47645;45.288;12.038;2023-08-07T07:23:30;4.7;;;0.8;;
61739;SDS011;47645;45.288;12.038;2023-08-07T07:33:32;3.0;;;0.6;;
61739;SDS011;47645;45.288;12.038;2023-08-07T07:43:32;4.1;;;0.8;;
61739;SDS011;47645;45.288;12.038;2023-08-07T07:53:33;3.6;;;1.1;;
61739;SDS011;47645;45.288;12.038;2023-08-07T08:03:35;3.8;;;1.1;;
61739;SDS011;47645;45.288;12.038;2023-08-07T08:13:39;4.0;;;1.1;;
61739;SDS011;47645;45.288;12.038;2023-08-07T08:23:37;4.1;;;1.0;;
61739;SDS011;47645;45.288;12.038;2023-08-07T08:33:39;3.7;;;0.8;;
61739;SDS011;47645;45.288;12.038;2023-08-07T08:43:40;2.9;;;0.9;;
61739;SDS011;47645;45.288;12.038;2023-08-07T08:53:41;3.8;;;0.7;;
61739;SDS011;47645;45.288;12.038;2023-08-07T09:03:43;4.2;;;0.9;;
61739;SDS011;47645;45.288;12.038;2023-08-07T09:13:44;2.1;;;0.6;;
61739;SDS011;47645;45.288;12.038;2023-08-07T09:23:45;4.5;;;0.9;;
61739;SDS011;47645;45.288;12.038;2023-08-07T09:33:47;2.5;;;0.8;;
61739;SDS011;47645;45.288;12.038;2023-08-07T09:43:48;3.0;;;0.7;;
61739;SDS011;47645;45.288;12.038;2023-08-07T09:53:49;2.1;;;0.6;;
61739;SDS011;47645;45.288;12.038;2023-08-07T10:03:51;2.5;;;0.6;;
61739;SDS011;47645;45.288;12.038;2023-08-07T10:13:54;1.4;;;0.5;;
61739;SDS011;47645;45.288;12.038;2023-08-07T10:23:54;1.5;;;0.4;;
61739;SDS011;47645;45.288;12.038;2023-08-07T10:33:56;1.2;;;0.4;;
61739;SDS011;47645;45.288;12.038;2023-08-07T10:43:57;1.8;;;0.4;;
61739;SDS011;47645;45.288;12.038;2023-08-07T10:54:01;1.1;;;0.5;;
61739;SDS011;47645;45.288;12.038;2023-08-07T11:04:05;1.5;;;0.4;;
61739;SDS011;47645;45.288;12.038;2023-08-07T11:14:02;1.1;;;0.4;;
61739;SDS011;47645;45.288;12.038;2023-08-07T11:24:04;1.3;;;0.2;;
61739;SDS011;47645;45.288;12.038;2023-08-07T11:34:06;0.8;;;0.4;;
61739;SDS011;47645;45.288;12.038;2023-08-07T11:44:08;0.9;;;0.3;;
61739;SDS011;47645;45.288;12.038;2023-08-07T11:54:13;1.1;;;0.3;;
61739;SDS011;47645;45.288;12.038;2023-08-07T12:04:12;0.9;;;0.4;;
61739;SDS011;47645;45.288;12.038;2023-08-07T12:14:16;1.7;;;0.4;;
61739;SDS011;47645;45.288;12.038;2023-08-07T12:24:16;1.0;;;0.3;;
61739;SDS011;47645;45.288;12.038;2023-08-07T12:34:18;0.8;;;0.3;;
61739;SDS011;47645;45.288;12.038;2023-08-07T12:44:19;0.7;;;0.3;;
61739;SDS011;47645;45.288;12.038;2023-08-07T12:54:22;1.1;;;0.4;;
61739;SDS011;47645;45.288;12.038;2023-08-07T13:04:23;1.0;;;0.3;;
61739;SDS011;47645;45.288;12.038;2023-08-07T13:14:25;0.9;;;0.4;;
61739;SDS011;47645;45.288;12.038;2023-08-07T13:24:27;0.9;;;0.3;;
61739;SDS011;47645;45.288;12.038;2023-08-07T13:34:29;1.1;;;0.4;;
61739;SDS011;47645;45.288;12.038;2023-08-07T13:44:31;1.4;;;0.4;;
61739;SDS011;47645;45.288;12.038;2023-08-07T13:54:33;1.1;;;0.4;;
61739;SDS011;47645;45.288;12.038;2023-08-07T14:04:35;1.0;;;0.4;;
61739;SDS011;47645;45.288;12.038;2023-08-07T14:14:37;1.1;;;0.4;;
61739;SDS011;47645;45.288;12.038;2023-08-07T14:24:38;1.2;;;0.3;;
61739;SDS011;47645;45.288;12.038;2023-08-07T14:34:40;0.8;;;0.3;;
61739;SDS011;47645;45.288;12.038;2023-08-07T14:44:42;2.0;;;0.4;;
61739;SDS011;47645;45.288;12.038;2023-08-07T14:54:44;1.1;;;0.3;;
61739;SDS011;47645;45.288;12.038;2023-08-07T15:04:46;1.3;;;0.4;;
61739;SDS011;47645;45.288;12.038;2023-08-07T15:14:48;1.1;;;0.4;;
61739;SDS011;47645;45.288;12.038;2023-08-07T15:24:50;0.9;;;0.4;;
61739;SDS011;47645;45.288;12.038;2023-08-07T15:34:53;1.4;;;0.4;;
61739;SDS011;47645;45.288;12.038;2023-08-07T15:44:54;1.3;;;0.6;;
61739;SDS011;47645;45.288;12.038;2023-08-07T15:54:56;1.0;;;0.4;;
61739;SDS011;47645;45.288;12.038;2023-08-07T16:04:57;1.0;;;0.3;;
61739;SDS011;47645;45.288;12.038;2023-08-07T16:15:01;2.7;;;0.5;;
61739;SDS011;47645;45.288;12.038;2023-08-07T16:25:01;1.8;;;0.5;;
61739;SDS011;47645;45.288;12.038;2023-08-07T16:35:03;1.8;;;0.6;;
61739;SDS011;47645;45.288;12.038;2023-08-07T16:40:05;2.2;;;0.5;;
61739;SDS011;47645;45.288;12.038;2023-08-07T16:50:06;3.1;;;0.7;;
61739;SDS011;47645;45.288;12.038;2023-08-07T17:00:08;1.7;;;0.6;;
61739;SDS011;47645;45.288;12.038;2023-08-07T17:10:13;1.2;;;0.5;;
61739;SDS011;47645;45.288;12.038;2023-08-07T17:20:11;2.3;;;0.6;;
61739;SDS011;47645;45.288;12.038;2023-08-07T17:30:13;1.5;;;0.5;;
61739;SDS011;47645;45.288;12.038;2023-08-07T17:40:15;3.1;;;0.5;;
61739;SDS011;47645;45.288;12.038;2023-08-07T17:50:16;1.6;;;0.7;;
61739;SDS011;47645;45.288;12.038;2023-08-07T18:00:18;1.9;;;0.7;;
61739;SDS011;47645;45.288;12.038;2023-08-07T18:10:19;2.9;;;0.7;;
61739;SDS011;47645;45.288;12.038;2023-08-07T18:20:21;2.5;;;0.9;;
61739;SDS011;47645;45.288;12.038;2023-08-07T18:30:23;1.8;;;0.8;;
61739;SDS011;47645;45.288;12.038;2023-08-07T18:40:24;2.2;;;0.8;;
61739;SDS011;47645;45.288;12.038;2023-08-07T18:50:26;2.3;;;0.8;;
61739;SDS011;47645;45.288;12.038;2023-08-07T19:00:27;3.2;;;1.0;;
61739;SDS011;47645;45.288;12.038;2023-08-07T19:10:29;3.5;;;1.0;;
61739;SDS011;47645;45.288;12.038;2023-08-07T19:20:31;2.2;;;1.3;;
61739;SDS011;47645;45.288;12.038;2023-08-07T19:30:32;2.6;;;1.4;;
61739;SDS011;47645;45.288;12.038;2023-08-07T19:40:34;3.2;;;1.6;;
61739;SDS011;47645;45.288;12.038;2023-08-07T19:50:35;2.5;;;1.5;;
61739;SDS011;47645;45.288;12.038;2023-08-07T20:00:36;2.7;;;1.3;;
61739;SDS011;47645;45.288;12.038;2023-08-07T20:10:38;2.1;;;1.1;;
61739;SDS011;47645;45.288;12.038;2023-08-07T20:20:40;1.8;;;1.0;;
61739;SDS011;47645;45.288;12.038;2023-08-07T20:30:41;2.7;;;1.1;;
61739;SDS011;47645;45.288;12.038;2023-08-07T20:40:42;2.3;;;0.9;;
61739;SDS011;47645;45.288;12.038;2023-08-07T20:50:44;2.3;;;0.9;;
61739;SDS011;47645;45.288;12.038;2023-08-07T21:00:45;1.9;;;0.9;;
61739;SDS011;47645;45.288;12.038;2023-08-07T21:10:47;1.5;;;0.8;;
61739;SDS011;47645;45.288;12.038;2023-08-07T21:20:48;1.8;;;0.9;;
61739;SDS011;47645;45.288;12.038;2023-08-07T21:30:49;4.2;;;0.9;;
61739;SDS011;47645;45.288;12.038;2023-08-07T21:40:50;2.0;;;0.9;;
61739;SDS011;47645;45.288;12.038;2023-08-07T21:50:52;1.7;;;0.7;;
61739;SDS011;47645;45.288;12.038;2023-08-07T22:00:53;1.2;;;0.6;;
61739;SDS011;47645;45.288;12.038;2023-08-07T22:10:55;1.6;;;0.6;;
61739;SDS011;47645;45.288;12.038;2023-08-07T22:20:56;2.4;;;0.8;;
61739;SDS011;47645;45.288;12.038;2023-08-07T22:30:57;1.9;;;0.8;;
61739;SDS011;47645;45.288;12.038;2023-08-07T22:40:58;1.1;;;0.6;;
61739;SDS011;47645;45.288;12.038;2023-08-07T22:51:00;2.6;;;0.8;;
61739;SDS011;47645;45.288;12.038;2023-08-07T23:01:01;3.2;;;1.1;;
61739;SDS011;47645;45.288;12.038;2023-08-07T23:11:03;5.0;;;1.6;;
61739;SDS011;47645;45.288;12.038;2023-08-07T23:21:04;3.4;;;1.6;;
61739;SDS011;47645;45.288;12.038;2023-08-07T23:31:05;4.5;;;1.6;;
61739;SDS011;47645;45.288;12.038;2023-08-07T23:41:06;4.9;;;1.5;;
61739;SDS011;47645;45.288;12.038;2023-08-07T23:51:07;2.8;;;1.2;;
